Time;durP1;ratioP1;P1;durP2;ratioP2;P2;SDS_P1;SDS_P2;PMS_P1;PMS_P2;Temp;Humidity;BMP_temperature;BMP_pressure;BME280_temperature;BME280_humidity;BME280_pressure;Samples;Min_cycle;Max_cycle;Signal;HPM_P1;HPM_P2
2023/05/16 00:01:48;;;;;;;5.50;1.83;;;10.70;99.90;;;;;;5016127;28;20548;-69
2023/05/16 00:04:15;;;;;;;3.90;2.43;;;10.70;99.90;;;;;;5016076;28;20238;-70
2023/05/16 00:06:40;;;;;;;2.47;2.30;;;10.70;99.90;;;;;;5015984;28;20172;-70
2023/05/16 00:09:06;;;;;;;2.57;2.40;;;10.70;99.90;;;;;;5016217;28;20862;-70
2023/05/16 00:11:32;;;;;;;2.83;2.67;;;10.70;99.90;;;;;;4998170;28;20294;-70
2023/05/16 00:13:57;;;;;;;2.60;2.40;;;10.70;99.90;;;;;;5016334;28;20164;-70
2023/05/16 00:16:24;;;;;;;2.60;2.40;;;10.70;99.90;;;;;;5016040;28;20199;-70
2023/05/16 00:18:51;;;;;;;2.20;2.10;;;10.60;99.90;;;;;;5016086;28;20180;-70
2023/05/16 00:21:17;;;;;;;2.53;2.33;;;10.60;99.90;;;;;;5015764;28;20430;-70
2023/05/16 00:23:43;;;;;;;5.63;2.73;;;10.60;99.90;;;;;;4998245;28;20469;-70
2023/05/16 00:26:09;;;;;;;2.17;2.07;;;10.60;99.90;;;;;;5015784;28;20406;-70
2023/05/16 00:28:34;;;;;;;3.80;2.80;;;10.60;99.90;;;;;;5015879;28;20537;-70
2023/05/16 00:31:00;;;;;;;2.17;2.00;;;10.50;99.90;;;;;;5015786;28;20659;-69
2023/05/16 00:33:26;;;;;;;1.13;1.13;;;10.40;99.90;;;;;;5015906;28;20168;-70
2023/05/16 00:35:52;;;;;;;1.30;1.30;;;10.30;99.90;;;;;;5015418;28;20184;-70
2023/05/16 00:38:18;;;;;;;1.73;1.60;;;10.20;99.90;;;;;;5015784;28;20197;-70
2023/05/16 00:40:44;;;;;;;1.97;1.87;;;10.20;99.90;;;;;;4997888;28;20218;-70
2023/05/16 00:43:09;;;;;;;4.33;2.30;;;10.20;99.90;;;;;;5015506;28;20957;-70
2023/05/16 00:45:35;;;;;;;2.70;1.60;;;10.20;99.90;;;;;;5015270;28;20514;-70
2023/05/16 00:48:01;;;;;;;1.50;1.40;;;10.20;99.90;;;;;;5015801;28;20178;-71
2023/05/16 00:50:26;;;;;;;3.70;3.40;;;10.20;99.90;;;;;;5014330;28;20199;-70
2023/05/16 00:52:52;;;;;;;1.00;1.00;;;10.20;99.90;;;;;;5015356;28;20167;-70
2023/05/16 00:55:18;;;;;;;3.80;1.90;;;10.10;99.90;;;;;;5015350;28;20167;-69
2023/05/16 00:57:44;;;;;;;2.80;2.60;;;10.10;99.90;;;;;;5015221;28;20527;-70
2023/05/16 01:00:10;;;;;;;5.63;2.90;;;10.00;99.90;;;;;;5015165;28;20171;-70
2023/05/16 01:02:36;;;;;;;2.97;2.78;;;9.90;99.90;;;;;;5015098;28;20171;-70
2023/05/16 01:05:04;;;;;;;2.30;1.30;;;9.90;99.90;;;;;;5014956;28;20195;-70
2023/05/16 01:07:30;;;;;;;1.50;1.40;;;9.90;99.90;;;;;;5014932;28;20489;-70
2023/05/16 01:09:56;;;;;;;2.15;1.63;;;9.80;99.90;;;;;;5015061;28;20172;-70
2023/05/16 01:12:42;;;;;;;1.55;1.45;;;9.70;99.90;;;;;;5014773;28;20175;-70
2023/05/16 01:15:12;;;;;;;2.03;1.90;;;9.60;99.90;;;;;;5015016;28;20175;-70
2023/05/16 01:17:43;;;;;;;2.65;2.15;;;9.40;99.90;;;;;;5014764;28;20168;-70
2023/05/16 01:20:13;;;;;;;1.67;1.58;;;9.40;99.90;;;;;;5014947;28;20175;-70
2023/05/16 01:22:51;;;;;;;2.08;1.98;;;9.40;99.90;;;;;;5014995;28;20152;-70
2023/05/16 01:25:41;;;;;;;2.47;1.98;;;9.40;99.90;;;;;;5014995;28;20206;-70
2023/05/16 01:28:09;;;;;;;1.27;1.17;;;9.40;99.90;;;;;;5015135;28;20243;-70
2023/05/16 01:30:40;;;;;;;1.42;1.30;;;9.50;99.90;;;;;;5014658;28;20198;-70
2023/05/16 01:33:06;;;;;;;2.75;1.63;;;9.60;99.90;;;;;;5014542;28;20175;-70
2023/05/16 01:35:32;;;;;;;2.40;1.70;;;9.40;99.90;;;;;;5014246;28;20500;-70
2023/05/16 01:38:05;;;;;;;2.72;2.50;;;9.50;99.90;;;;;;5014624;28;20168;-70
2023/05/16 01:41:01;;;;;;;1.88;1.48;;;9.40;99.90;;;;;;5014584;28;20540;-70
2023/05/16 01:43:36;;;;;;;2.45;2.22;;;9.30;99.90;;;;;;5014360;28;20278;-70
2023/05/16 01:46:20;;;;;;;2.60;1.73;;;9.40;99.90;;;;;;5014181;28;20172;-69
2023/05/16 01:48:56;;;;;;;4.13;3.83;;;9.40;99.90;;;;;;5014812;28;20250;-70
2023/05/16 01:51:26;;;;;;;1.85;1.70;;;9.40;99.90;;;;;;5014096;28;20227;-70
2023/05/16 01:54:00;;;;;;;3.33;3.05;;;9.40;99.90;;;;;;5014379;28;20202;-70
2023/05/16 01:56:26;;;;;;;6.35;2.65;;;9.40;99.90;;;;;;5014170;28;20643;-70
2023/05/16 01:58:53;;;;;;;7.28;3.22;;;9.50;99.90;;;;;;5014294;28;20187;-70
2023/05/16 02:01:19;;;;;;;5.03;4.57;;;9.50;99.90;;;;;;5013726;28;20199;-70
2023/05/16 02:03:44;;;;;;;3.27;3.07;;;9.50;99.90;;;;;;5014167;28;20191;-70
2023/05/16 02:06:10;;;;;;;2.50;2.03;;;9.50;99.90;;;;;;5013806;28;20504;-69
2023/05/16 02:08:36;;;;;;;2.13;2.03;;;9.40;99.90;;;;;;5014155;28;20203;-69
2023/05/16 02:11:01;;;;;;;1.60;1.50;;;9.40;99.90;;;;;;5013842;28;20187;-69
2023/05/16 02:13:27;;;;;;;2.40;2.20;;;9.40;99.90;;;;;;5013824;28;20190;-70
2023/05/16 02:15:53;;;;;;;3.17;2.97;;;9.50;99.90;;;;;;5013711;28;20407;-70
2023/05/16 02:18:18;;;;;;;3.37;3.07;;;9.50;99.90;;;;;;4996385;28;20647;-70
2023/05/16 02:20:44;;;;;;;2.80;1.13;;;9.50;99.90;;;;;;5013667;28;20187;-70
2023/05/16 02:23:10;;;;;;;4.00;2.90;;;9.40;99.90;;;;;;5013638;28;20179;-70
2023/05/16 02:25:35;;;;;;;3.03;2.80;;;9.40;99.90;;;;;;5013996;28;20230;-70
2023/05/16 02:28:01;;;;;;;4.80;2.07;;;9.40;99.90;;;;;;5013751;28;20196;-70
2023/05/16 02:30:27;;;;;;;1.13;1.03;;;9.60;99.90;;;;;;5013638;28;20250;-70
2023/05/16 02:32:53;;;;;;;4.10;2.47;;;9.60;99.90;;;;;;5013750;28;20602;-70
2023/05/16 02:35:18;;;;;;;1.80;1.70;;;9.70;99.90;;;;;;5013640;28;20164;-69
2023/05/16 02:37:45;;;;;;;3.57;3.27;;;9.70;99.90;;;;;;5013596;28;20906;-70
2023/05/16 02:40:11;;;;;;;2.85;2.65;;;9.60;99.90;;;;;;5013487;28;20528;-70
2023/05/16 02:42:37;;;;;;;0.82;0.82;;;9.70;99.90;;;;;;5013565;28;20175;-70
2023/05/16 02:45:03;;;;;;;0.93;0.93;;;9.70;99.90;;;;;;5013557;28;20203;-70
2023/05/16 02:47:29;;;;;;;1.43;1.33;;;9.70;99.90;;;;;;5013514;28;20174;-69
2023/05/16 02:49:55;;;;;;;1.90;1.80;;;9.70;99.90;;;;;;5013515;28;20769;-70
2023/05/16 02:52:20;;;;;;;1.98;1.88;;;9.70;99.90;;;;;;5013328;28;20199;-70
2023/05/16 02:54:46;;;;;;;1.67;1.67;;;9.70;99.90;;;;;;5013459;28;20179;-70
2023/05/16 02:57:12;;;;;;;3.13;2.93;;;9.80;99.90;;;;;;5013324;28;20172;-70
2023/05/16 02:59:37;;;;;;;3.27;3.07;;;9.90;99.90;;;;;;5013347;28;20214;-70
2023/05/16 03:02:03;;;;;;;2.70;2.60;;;9.90;99.90;;;;;;5013312;28;20690;-69
2023/05/16 03:04:29;;;;;;;2.20;2.00;;;10.00;99.90;;;;;;5013266;28;20203;-70
2023/05/16 03:06:55;;;;;;;1.97;1.80;;;10.00;99.90;;;;;;5013193;28;20168;-70
2023/05/16 03:09:20;;;;;;;3.47;3.17;;;10.10;99.90;;;;;;4995934;28;20188;-69
2023/05/16 03:11:46;;;;;;;3.17;3.00;;;10.10;99.90;;;;;;5013122;28;20949;-70
2023/05/16 03:14:12;;;;;;;4.33;3.03;;;10.10;99.90;;;;;;5016917;28;20175;-70
2023/05/16 03:16:40;;;;;;;2.37;2.10;;;10.10;99.90;;;;;;5016882;28;20172;-70
2023/05/16 03:19:06;;;;;;;2.63;2.43;;;10.10;99.90;;;;;;5017259;28;20164;-69
2023/05/16 03:21:31;;;;;;;3.40;1.77;;;10.10;99.90;;;;;;5016914;28;20433;-70
2023/05/16 03:23:57;;;;;;;3.17;3.07;;;10.10;99.90;;;;;;5016893;28;20199;-70
2023/05/16 03:26:25;;;;;;;1.63;1.63;;;10.10;99.90;;;;;;5016780;28;20167;-70
2023/05/16 03:28:51;;;;;;;2.70;2.45;;;10.20;99.90;;;;;;5016967;28;20168;-69
2023/05/16 03:31:17;;;;;;;4.53;3.30;;;10.20;99.90;;;;;;4999288;28;20233;-70
2023/05/16 03:33:42;;;;;;;1.27;1.20;;;10.20;99.90;;;;;;5015540;28;20176;-70
2023/05/16 03:36:09;;;;;;;1.40;1.40;;;10.20;99.90;;;;;;5016004;28;20187;-71
2023/05/16 03:38:35;;;;;;;2.25;1.58;;;10.30;99.90;;;;;;5016865;28;20175;-70
2023/05/16 03:41:01;;;;;;;2.85;2.65;;;10.30;99.90;;;;;;5015559;28;20195;-70
2023/05/16 03:43:27;;;;;;;3.23;2.93;;;10.20;99.90;;;;;;5016595;28;20199;-70
2023/05/16 03:45:52;;;;;;;3.47;1.63;;;10.20;99.90;;;;;;5016434;28;20438;-70
2023/05/16 03:48:18;;;;;;;5.47;5.00;;;10.20;99.90;;;;;;5016653;28;20259;-69
2023/05/16 03:50:44;;;;;;;1.30;1.20;;;10.30;99.90;;;;;;5016372;28;20246;-70
2023/05/16 03:53:10;;;;;;;5.30;4.83;;;10.30;99.90;;;;;;5016670;28;20172;-70
2023/05/16 03:55:36;;;;;;;3.70;2.58;;;10.30;99.90;;;;;;5016369;28;20736;-70
2023/05/16 03:58:02;;;;;;;3.57;3.37;;;10.30;99.90;;;;;;5016551;28;20177;-70
2023/05/16 04:00:28;;;;;;;4.30;3.87;;;10.30;99.90;;;;;;5016306;28;20431;-70
2023/05/16 04:02:53;;;;;;;1.30;1.30;;;10.30;99.90;;;;;;5016216;28;20497;-70
2023/05/16 04:05:19;;;;;;;11.27;2.67;;;10.40;99.90;;;;;;5016172;28;20249;-70
2023/05/16 04:07:45;;;;;;;4.60;2.53;;;10.40;99.90;;;;;;5016539;28;20175;-70
2023/05/16 04:10:11;;;;;;;2.73;2.53;;;10.40;99.90;;;;;;5016124;28;20171;-70
2023/05/16 04:12:37;;;;;;;4.40;4.03;;;10.40;99.90;;;;;;5015962;28;20187;-70
2023/05/16 04:15:04;;;;;;;2.90;2.10;;;10.40;99.90;;;;;;5016023;28;20556;-70
2023/05/16 04:17:29;;;;;;;1.95;1.85;;;10.40;99.90;;;;;;5015845;28;20503;-70
2023/05/16 04:19:55;;;;;;;2.67;2.53;;;10.50;99.90;;;;;;5016027;28;20182;-70
2023/05/16 04:22:21;;;;;;;2.70;2.13;;;10.50;99.90;;;;;;5015946;28;20201;-70
2023/05/16 04:24:47;;;;;;;2.67;2.47;;;10.60;99.90;;;;;;5015663;28;20195;-70
2023/05/16 04:27:13;;;;;;;2.53;2.38;;;10.60;99.90;;;;;;5015775;28;20170;-71
2023/05/16 04:29:39;;;;;;;5.83;4.10;;;10.60;99.90;;;;;;5015725;28;20167;-70
2023/05/16 04:32:06;;;;;;;3.73;3.53;;;10.70;99.90;;;;;;5015653;28;20238;-70
2023/05/16 04:34:32;;;;;;;2.67;1.98;;;10.80;99.90;;;;;;5015851;28;20410;-70
2023/05/16 04:36:58;;;;;;;2.85;2.10;;;10.90;99.90;;;;;;5015502;28;20168;-69
2023/05/16 04:39:24;;;;;;;4.00;3.70;;;11.00;99.90;;;;;;5015695;28;20171;-70
2023/05/16 04:41:50;;;;;;;4.87;1.83;;;11.10;99.90;;;;;;5015396;28;20432;-70
2023/05/16 04:44:16;;;;;;;1.43;1.20;;;11.10;99.90;;;;;;5015583;28;20222;-70
2023/05/16 04:46:41;;;;;;;2.70;2.50;;;11.20;99.90;;;;;;5015232;28;20911;-70
2023/05/16 04:49:07;;;;;;;2.50;2.30;;;11.20;99.90;;;;;;5015601;28;20160;-70
2023/05/16 04:51:34;;;;;;;4.30;4.00;;;11.20;99.90;;;;;;5015504;28;20683;-70
2023/05/16 04:54:00;;;;;;;2.97;2.67;;;11.20;99.90;;;;;;5015353;28;20179;-70
2023/05/16 04:56:26;;;;;;;4.40;4.10;;;11.30;99.90;;;;;;5015110;28;20410;-70
2023/05/16 04:58:51;;;;;;;8.17;6.00;;;11.30;99.90;;;;;;5015380;28;20658;-70
2023/05/16 05:01:17;;;;;;;3.03;2.80;;;11.30;99.90;;;;;;5015238;28;20203;-70
2023/05/16 05:03:43;;;;;;;5.80;5.30;;;11.30;99.90;;;;;;5015269;28;20203;-70
2023/05/16 05:06:08;;;;;;;2.60;2.50;;;11.40;99.90;;;;;;4997270;28;20175;-69
2023/05/16 05:08:34;;;;;;;6.70;3.03;;;11.30;99.90;;;;;;5015171;28;20213;-72
2023/05/16 05:11:00;;;;;;;4.30;4.00;;;11.40;99.90;;;;;;5013887;28;20707;-71
2023/05/16 05:13:26;;;;;;;5.83;3.23;;;11.40;99.90;;;;;;5014073;28;20431;-71
2023/05/16 05:15:51;;;;;;;4.23;3.87;;;11.40;99.90;;;;;;5013551;28;20333;-69
2023/05/16 05:18:17;;;;;;;1.10;1.10;;;11.40;99.90;;;;;;5014905;28;20524;-74
2023/05/16 05:20:43;;;;;;;1.43;1.33;;;11.40;99.90;;;;;;4996973;28;20687;-70
2023/05/16 05:23:09;;;;;;;2.40;1.80;;;11.70;99.90;;;;;;5013999;28;20438;-69
2023/05/16 05:25:38;;;;;;;4.83;2.93;;;12.20;99.90;;;;;;5014673;28;20414;-69
2023/05/16 05:28:03;;;;;;;5.40;4.20;;;12.50;99.90;;;;;;5015124;28;20259;-71
2023/05/16 05:30:29;;;;;;;3.43;2.10;;;12.60;99.90;;;;;;5014551;28;20514;-71
2023/05/16 05:32:55;;;;;;;2.60;2.40;;;12.60;99.90;;;;;;5014984;28;20171;-71
2023/05/16 05:35:20;;;;;;;2.43;2.33;;;12.50;99.90;;;;;;5014195;28;20187;-72
2023/05/16 05:37:46;;;;;;;3.27;2.47;;;12.30;99.90;;;;;;5014918;28;20167;-71
2023/05/16 05:40:12;;;;;;;1.07;1.03;;;12.10;99.90;;;;;;5014964;28;20564;-72
2023/05/16 05:42:38;;;;;;;1.00;1.00;;;11.90;99.90;;;;;;5012313;28;20186;-69
2023/05/16 05:45:04;;;;;;;0.60;0.60;;;11.80;99.90;;;;;;5013479;28;20449;-70
2023/05/16 05:47:30;;;;;;;3.33;1.77;;;11.60;99.90;;;;;;5013596;28;20220;-69
2023/05/16 05:49:56;;;;;;;1.43;1.33;;;11.50;99.90;;;;;;5014316;28;20395;-71
2023/05/16 05:52:22;;;;;;;0.70;0.70;;;11.40;99.90;;;;;;5014136;28;20521;-69
2023/05/16 05:54:47;;;;;;;0.73;0.70;;;11.40;99.90;;;;;;5014278;28;20406;-70
2023/05/16 05:57:13;;;;;;;0.83;0.83;;;11.40;99.90;;;;;;5013965;28;20678;-70
2023/05/16 05:59:39;;;;;;;2.07;1.60;;;11.30;99.90;;;;;;5014227;28;20632;-70
2023/05/16 06:02:06;;;;;;;1.17;1.03;;;11.20;99.90;;;;;;5013529;28;20195;-72
2023/05/16 06:04:31;;;;;;;1.77;1.67;;;11.20;99.90;;;;;;5012728;28;20458;-71
2023/05/16 06:06:57;;;;;;;1.57;1.37;;;11.30;99.90;;;;;;5014102;28;20498;-71
2023/05/16 06:09:22;;;;;;;3.07;1.47;;;11.40;99.90;;;;;;5012898;28;20171;-71
2023/05/16 06:11:49;;;;;;;1.73;1.63;;;11.40;99.90;;;;;;5013437;28;20278;-71
2023/05/16 06:14:15;;;;;;;3.13;1.27;;;11.40;99.90;;;;;;5013996;28;20531;-71
2023/05/16 06:16:40;;;;;;;3.13;2.30;;;11.30;99.90;;;;;;5012753;28;20410;-71
2023/05/16 06:19:06;;;;;;;5.33;2.07;;;11.40;99.90;;;;;;5014092;28;20468;-71
2023/05/16 06:21:32;;;;;;;2.70;2.40;;;11.40;99.90;;;;;;5013829;28;20565;-71
2023/05/16 06:23:58;;;;;;;3.43;1.93;;;11.40;99.90;;;;;;5013910;28;20926;-71
2023/05/16 06:26:24;;;;;;;3.10;2.80;;;11.50;99.90;;;;;;5013619;28;20421;-71
2023/05/16 06:28:50;;;;;;;2.87;1.07;;;11.60;99.90;;;;;;5013689;28;20402;-70
2023/05/16 06:31:15;;;;;;;1.67;1.57;;;11.80;99.90;;;;;;5013643;28;20218;-70
2023/05/16 06:33:41;;;;;;;3.00;2.57;;;11.90;99.90;;;;;;5013629;28;20654;-70
2023/05/16 06:36:07;;;;;;;3.63;2.90;;;12.00;99.90;;;;;;5013559;28;20536;-71
2023/05/16 06:38:32;;;;;;;2.77;2.33;;;12.20;99.90;;;;;;5013575;28;20195;-71
2023/05/16 06:40:58;;;;;;;2.23;2.00;;;12.40;99.90;;;;;;5013721;28;20206;-70
2023/05/16 06:43:24;;;;;;;3.00;1.53;;;12.50;99.90;;;;;;5012299;28;20203;-70
2023/05/16 06:45:49;;;;;;;2.03;1.93;;;12.50;99.90;;;;;;5013521;28;20170;-71
2023/05/16 06:48:17;;;;;;;7.20;1.43;;;12.50;99.90;;;;;;5013935;28;20646;-71
2023/05/16 06:50:46;;;;;;;1.90;1.80;;;12.70;99.90;;;;;;5017120;28;20197;-71
2023/05/16 06:53:12;;;;;;;1.13;1.03;;;12.80;99.90;;;;;;5017256;28;20890;-71
2023/05/16 06:55:38;;;;;;;2.23;2.00;;;12.90;99.60;;;;;;5017880;28;20414;-71
2023/05/16 06:58:03;;;;;;;3.23;3.07;;;12.90;99.90;;;;;;5017485;28;20402;-70
2023/05/16 07:00:29;;;;;;;3.07;2.77;;;13.00;99.40;;;;;;5017564;28;20437;-71
2023/05/16 07:02:55;;;;;;;1.60;1.33;;;12.90;99.60;;;;;;5017224;28;20498;-71
2023/05/16 07:05:20;;;;;;;1.90;1.57;;;12.90;99.90;;;;;;5016001;28;20222;-72
2023/05/16 07:07:48;;;;;;;1.73;1.30;;;12.90;99.90;;;;;;5016751;28;20178;-71
2023/05/16 07:10:14;;;;;;;1.43;1.33;;;12.80;99.00;;;;;;5015829;28;20222;-71
2023/05/16 07:12:41;;;;;;;1.27;1.17;;;12.50;99.30;;;;;;5017014;28;20966;-71
2023/05/16 07:15:08;;;;;;;3.07;1.57;;;12.30;99.90;;;;;;5016912;28;20418;-71
2023/05/16 07:17:33;;;;;;;2.60;1.70;;;12.20;99.90;;;;;;5015743;28;20839;-71
2023/05/16 07:19:59;;;;;;;1.47;1.37;;;12.20;99.90;;;;;;5016909;28;20449;-70
2023/05/16 07:22:25;;;;;;;1.10;1.07;;;12.00;99.90;;;;;;5016497;28;20199;-73
2023/05/16 07:24:53;;;;;;;0.70;0.70;;;12.00;99.90;;;;;;5016262;28;20886;-72
2023/05/16 07:27:19;;;;;;;1.00;1.00;;;11.90;99.90;;;;;;5016652;28;20357;-72
2023/05/16 07:29:45;;;;;;;1.20;1.10;;;11.90;99.90;;;;;;5015532;28;20421;-72
2023/05/16 07:32:10;;;;;;;1.37;1.37;;;11.80;99.90;;;;;;5016425;28;20894;-72
2023/05/16 07:34:36;;;;;;;2.00;1.90;;;11.90;99.90;;;;;;5016805;28;20655;-72
2023/05/16 07:37:02;;;;;;;1.33;1.27;;;12.00;99.90;;;;;;5016605;28;20180;-71
2023/05/16 07:39:27;;;;;;;1.20;1.20;;;12.10;99.90;;;;;;5016856;28;20634;-71
2023/05/16 07:41:53;;;;;;;3.00;2.67;;;12.20;99.90;;;;;;5016520;28;20514;-72
2023/05/16 07:44:19;;;;;;;0.83;0.83;;;12.20;99.90;;;;;;5016736;28;20678;-71
2023/05/16 07:46:44;;;;;;;1.27;1.17;;;12.30;99.90;;;;;;5016758;28;20172;-71
2023/05/16 07:49:10;;;;;;;1.43;1.33;;;12.20;99.90;;;;;;5016666;28;20628;-72
2023/05/16 07:51:36;;;;;;;1.07;1.07;;;12.30;99.90;;;;;;5016568;28;20220;-72
2023/05/16 07:54:02;;;;;;;0.50;0.50;;;12.20;99.90;;;;;;5016428;28;20306;-72
2023/05/16 07:56:28;;;;;;;2.43;1.93;;;12.30;99.90;;;;;;5016182;28;20673;-71
2023/05/16 07:58:54;;;;;;;0.67;0.60;;;12.20;99.90;;;;;;5015954;28;20415;-71
2023/05/16 08:01:20;;;;;;;0.60;0.60;;;12.20;99.90;;;;;;5016256;28;20445;-72
2023/05/16 08:03:45;;;;;;;0.50;0.50;;;12.30;99.90;;;;;;5016369;28;20541;-72
2023/05/16 08:06:11;;;;;;;1.90;1.03;;;12.30;99.90;;;;;;5016036;28;20171;-73
2023/05/16 08:08:37;;;;;;;1.33;1.23;;;12.50;99.90;;;;;;5016332;28;20172;-71
2023/05/16 08:11:04;;;;;;;1.10;1.03;;;12.60;99.90;;;;;;5016081;28;20254;-72
2023/05/16 08:13:30;;;;;;;0.83;0.70;;;12.70;99.90;;;;;;5015993;28;20183;-71
2023/05/16 08:15:56;;;;;;;0.40;0.40;;;12.80;99.90;;;;;;5015889;28;20422;-72
2023/05/16 08:18:21;;;;;;;0.80;0.70;;;12.80;99.80;;;;;;5016186;28;20901;-71
2023/05/16 08:20:47;;;;;;;1.10;1.00;;;12.60;98.50;;;;;;5014651;28;20187;-72
2023/05/16 08:23:13;;;;;;;0.60;0.60;;;12.50;99.50;;;;;;5016533;28;20174;-72
2023/05/16 08:25:39;;;;;;;1.07;0.83;;;12.50;99.30;;;;;;4998170;28;20620;-72
2023/05/16 08:28:05;;;;;;;0.87;0.87;;;12.40;99.50;;;;;;5016651;28;20406;-71
2023/05/16 08:30:31;;;;;;;0.70;0.70;;;12.40;99.90;;;;;;5015948;28;20564;-72
2023/05/16 08:32:56;;;;;;;0.80;0.80;;;12.40;99.90;;;;;;5016188;28;20175;-72
2023/05/16 08:35:22;;;;;;;0.60;0.50;;;12.30;99.90;;;;;;5015975;28;20497;-72
2023/05/16 08:37:47;;;;;;;1.00;0.90;;;12.40;99.90;;;;;;5016037;28;20175;-72
2023/05/16 08:40:14;;;;;;;1.10;1.00;;;12.40;99.90;;;;;;5014596;28;20548;-72
2023/05/16 08:42:40;;;;;;;0.83;0.83;;;12.60;99.90;;;;;;5015548;28;20183;-70
2023/05/16 08:45:07;;;;;;;0.50;0.50;;;12.70;99.90;;;;;;5015157;28;20458;-71
2023/05/16 08:47:35;;;;;;;1.03;1.03;;;12.80;99.90;;;;;;5013080;28;20891;-70
2023/05/16 08:50:03;;;;;;;0.90;0.90;;;12.90;99.90;;;;;;5014327;28;20822;-69
2023/05/16 08:52:32;;;;;;;4.63;1.23;;;13.00;99.90;;;;;;5014604;28;20481;-70
2023/05/16 08:55:04;;;;;;;0.50;0.50;;;13.00;99.90;;;;;;5014551;28;20504;-68
2023/05/16 08:57:32;;;;;;;0.50;0.50;;;13.00;99.90;;;;;;5014327;28;20465;-69
2023/05/16 09:00:00;;;;;;;2.30;0.73;;;13.00;99.90;;;;;;5014504;28;20410;-69
2023/05/16 09:02:29;;;;;;;0.40;0.40;;;13.00;99.90;;;;;;5013670;28;20434;-69
2023/05/16 09:04:56;;;;;;;0.40;0.40;;;13.00;99.90;;;;;;5014993;28;20473;-69
2023/05/16 09:07:23;;;;;;;1.07;1.07;;;13.00;99.90;;;;;;5014903;28;20411;-68
2023/05/16 09:09:50;;;;;;;1.03;0.73;;;12.90;99.90;;;;;;5014751;28;20891;-68
2023/05/16 09:12:15;;;;;;;1.37;0.63;;;13.00;99.90;;;;;;4997070;28;20465;-69
2023/05/16 09:14:41;;;;;;;1.20;1.10;;;13.10;99.90;;;;;;5015474;28;20414;-70
2023/05/16 09:17:08;;;;;;;0.90;0.90;;;13.40;99.90;;;;;;5014150;28;20175;-69
2023/05/16 09:19:41;;;;;;;2.17;1.97;;;13.70;99.90;;;;;;5014391;28;20632;-70
2023/05/16 09:22:15;;;;;;;1.17;1.07;;;13.80;98.20;;;;;;5014907;28;20529;-69
2023/05/16 09:24:45;;;;;;;0.87;0.67;;;13.80;98.70;;;;;;5014760;28;20449;-68
2023/05/16 09:27:16;;;;;;;0.47;0.47;;;13.80;99.10;;;;;;5013442;28;20415;-68
2023/05/16 09:29:45;;;;;;;0.70;0.70;;;13.70;98.60;;;;;;5012810;28;20410;-69
2023/05/16 09:32:15;;;;;;;1.47;1.37;;;13.60;98.30;;;;;;5012612;28;20442;-69
2023/05/16 09:34:47;;;;;;;2.10;1.33;;;13.70;98.40;;;;;;5014013;28;20460;-69
2023/05/16 09:37:14;;;;;;;1.83;1.17;;;13.90;98.90;;;;;;5014745;28;20902;-69
2023/05/16 09:39:48;;;;;;;0.80;0.80;;;14.40;99.50;;;;;;5014958;28;20418;-69
2023/05/16 09:42:15;;;;;;;1.37;1.27;;;14.80;98.80;;;;;;5014485;28;20432;-70
2023/05/16 09:44:45;;;;;;;0.73;0.50;;;15.10;96.80;;;;;;5014409;28;20547;-69
2023/05/16 09:47:15;;;;;;;0.60;0.60;;;15.30;95.90;;;;;;5014436;28;20410;-71
2023/05/16 09:49:41;;;;;;;1.00;1.00;;;15.40;95.30;;;;;;5014455;28;20420;-71
2023/05/16 09:52:06;;;;;;;0.50;0.50;;;15.40;95.60;;;;;;5014207;28;20438;-69
2023/05/16 09:54:33;;;;;;;2.33;1.97;;;15.30;94.40;;;;;;5014956;28;20201;-69
2023/05/16 09:56:59;;;;;;;0.40;0.40;;;15.30;94.60;;;;;;5014228;28;20266;-69
2023/05/16 09:59:27;;;;;;;0.57;0.57;;;15.30;93.90;;;;;;5014425;28;20415;-71
2023/05/16 10:01:56;;;;;;;0.50;0.50;;;15.50;94.60;;;;;;4996815;28;20442;-71
2023/05/16 10:04:21;;;;;;;1.47;1.37;;;15.90;92.70;;;;;;5014059;28;20510;-69
2023/05/16 10:06:51;;;;;;;1.43;0.90;;;16.30;92.90;;;;;;5013901;28;20415;-71
2023/05/16 10:09:17;;;;;;;0.80;0.80;;;17.00;92.40;;;;;;5014421;28;20203;-69
2023/05/16 10:11:45;;;;;;;0.70;0.50;;;17.90;89.40;;;;;;5013904;28;20955;-71
2023/05/16 10:14:12;;;;;;;0.93;0.90;;;18.30;83.70;;;;;;5014063;28;20410;-69
2023/05/16 10:16:42;;;;;;;0.97;0.97;;;18.10;83.40;;;;;;5012842;28;20779;-69
2023/05/16 10:19:08;;;;;;;0.43;0.43;;;17.70;83.00;;;;;;5012722;28;20647;-69
2023/05/16 10:21:36;;;;;;;1.20;1.03;;;17.10;82.30;;;;;;5011599;28;21024;-69
2023/05/16 10:24:05;;;;;;;0.63;0.63;;;16.70;87.40;;;;;;5012151;28;20984;-69
2023/05/16 10:26:32;;;;;;;1.17;1.07;;;16.50;87.90;;;;;;5013585;28;20834;-69
2023/05/16 10:28:59;;;;;;;0.80;0.80;;;16.50;85.40;;;;;;5013803;28;20403;-70
2023/05/16 10:31:25;;;;;;;0.47;0.47;;;16.40;86.90;;;;;;5013574;28;20438;-70
2023/05/16 10:33:51;;;;;;;0.70;0.70;;;16.40;89.60;;;;;;5013655;28;20407;-70
2023/05/16 10:36:18;;;;;;;1.23;1.00;;;16.40;87.10;;;;;;5013427;28;20570;-69
2023/05/16 10:38:45;;;;;;;2.67;0.83;;;16.30;86.00;;;;;;5013695;28;20421;-70
2023/05/16 10:41:12;;;;;;;0.53;0.53;;;16.20;87.00;;;;;;5013481;28;20491;-70
2023/05/16 10:43:39;;;;;;;5.60;1.87;;;16.10;87.70;;;;;;5013587;28;20441;-69
2023/05/16 10:46:10;;;;;;;1.17;1.07;;;16.10;85.20;;;;;;5013525;28;20411;-70
2023/05/16 10:48:37;;;;;;;0.50;0.50;;;16.00;86.20;;;;;;5013600;28;20493;-69
2023/05/16 10:51:34;;;;;;;0.60;0.60;;;16.20;85.20;;;;;;5012433;28;20430;-70
2023/05/16 10:54:09;;;;;;;0.70;0.70;;;16.10;84.80;;;;;;4996626;28;20426;-70
2023/05/16 10:56:35;;;;;;;0.70;0.70;;;15.50;87.60;;;;;;5012747;28;20989;-69
2023/05/16 10:59:01;;;;;;;0.47;0.47;;;15.20;87.50;;;;;;5012978;28;20417;-69
2023/05/16 11:01:30;;;;;;;1.10;0.97;;;14.90;88.50;;;;;;5013420;28;20520;-69
2023/05/16 11:03:56;;;;;;;0.83;0.83;;;14.70;89.90;;;;;;5011448;28;20450;-66
2023/05/16 11:06:51;;;;;;;0.60;0.60;;;14.60;91.10;;;;;;5013337;28;20414;-66
2023/05/16 11:09:16;;;;;;;1.40;1.27;;;14.90;92.00;;;;;;5012607;28;20202;-66
2023/05/16 11:12:00;;;;;;;0.60;0.60;;;15.50;91.90;;;;;;5029584;28;20875;-66
2023/05/16 11:14:31;;;;;;;0.80;0.80;;;16.20;91.50;;;;;;5020077;28;20522;-66
2023/05/16 11:17:08;;;;;;;0.60;0.60;;;16.60;90.00;;;;;;5012374;28;20415;-66
2023/05/16 11:19:51;;;;;;;0.87;0.87;;;16.80;90.00;;;;;;5012519;28;20449;-69
2023/05/16 11:22:23;;;;;;;3.33;1.20;;;16.70;85.90;;;;;;5012571;28;20482;-69
2023/05/16 11:24:53;;;;;;;1.40;0.63;;;16.60;88.80;;;;;;5012657;28;20504;-69
2023/05/16 11:27:44;;;;;;;1.47;1.47;;;16.40;89.30;;;;;;5012455;28;20411;-69
2023/05/16 11:30:16;;;;;;;1.23;0.93;;;16.20;87.40;;;;;;5013307;28;20418;-69
2023/05/16 11:32:44;;;;;;;1.67;1.57;;;15.60;86.90;;;;;;4995413;28;20515;-69
2023/05/16 11:35:16;;;;;;;2.33;1.93;;;15.50;88.00;;;;;;5016340;28;20406;-69
2023/05/16 11:37:43;;;;;;;2.53;2.40;;;15.40;88.80;;;;;;5016866;28;20472;-69
2023/05/16 11:40:11;;;;;;;1.73;1.43;;;15.10;90.00;;;;;;5016983;28;20420;-69
2023/05/16 11:42:41;;;;;;;2.03;1.80;;;15.30;90.10;;;;;;5016618;28;20413;-70
2023/05/16 11:45:11;;;;;;;1.63;1.53;;;15.50;88.50;;;;;;5017142;28;20478;-70
2023/05/16 11:47:38;;;;;;;2.07;1.77;;;15.70;89.50;;;;;;5015936;28;20433;-70
2023/05/16 11:50:08;;;;;;;2.47;2.20;;;15.90;89.00;;;;;;4997451;28;20416;-71
2023/05/16 11:52:34;;;;;;;1.93;1.30;;;16.20;86.30;;;;;;5014853;28;20505;-69
2023/05/16 11:55:00;;;;;;;1.03;1.03;;;16.40;85.40;;;;;;5015791;28;20417;-71
2023/05/16 11:57:26;;;;;;;0.93;0.87;;;16.40;86.20;;;;;;5014021;28;20440;-70
2023/05/16 11:59:53;;;;;;;1.43;0.80;;;16.60;89.60;;;;;;5015609;28;20219;-70
2023/05/16 12:02:20;;;;;;;0.90;0.90;;;16.60;85.70;;;;;;5015612;28;20426;-70
2023/05/16 12:04:49;;;;;;;1.53;1.03;;;16.30;82.70;;;;;;5014301;28;20486;-70
2023/05/16 12:07:14;;;;;;;1.67;1.57;;;16.10;84.60;;;;;;5015833;28;20418;-70
2023/05/16 12:09:40;;;;;;;1.13;1.10;;;16.00;86.50;;;;;;5015991;28;20904;-70
2023/05/16 12:12:07;;;;;;;1.93;1.07;;;15.70;86.80;;;;;;5015445;28;20683;-70
2023/05/16 12:14:33;;;;;;;1.07;1.07;;;15.50;87.30;;;;;;5015209;28;20306;-70
2023/05/16 12:16:59;;;;;;;0.83;0.83;;;15.50;88.30;;;;;;5016076;28;20890;-70
2023/05/16 12:19:25;;;;;;;1.23;1.23;;;15.80;88.50;;;;;;4998367;28;20435;-70
2023/05/16 12:21:53;;;;;;;1.07;1.03;;;16.00;87.70;;;;;;5016167;28;20775;-70
2023/05/16 12:24:19;;;;;;;0.73;0.70;;;16.00;88.90;;;;;;5015834;28;20446;-70
2023/05/16 12:26:45;;;;;;;0.97;0.97;;;15.60;84.70;;;;;;5015761;28;20421;-70
2023/05/16 12:29:12;;;;;;;0.90;0.67;;;15.30;88.90;;;;;;5015620;28;20509;-70
2023/05/16 12:31:40;;;;;;;0.67;0.67;;;15.10;89.00;;;;;;5015803;28;20187;-69
2023/05/16 12:34:22;;;;;;;0.60;0.60;;;15.00;88.10;;;;;;5015961;28;20813;-70
2023/05/16 12:36:53;;;;;;;2.67;1.73;;;14.50;88.30;;;;;;4997931;28;20425;-69
2023/05/16 12:39:19;;;;;;;1.10;1.10;;;14.40;90.10;;;;;;5016259;28;20421;-69
2023/05/16 12:41:46;;;;;;;0.80;0.80;;;14.30;89.10;;;;;;5015556;28;20431;-70
2023/05/16 12:44:16;;;;;;;1.43;1.33;;;14.50;89.40;;;;;;4998563;28;20939;-69
2023/05/16 12:46:48;;;;;;;1.70;1.60;;;14.70;87.80;;;;;;5015860;28;20461;-70
2023/05/16 12:49:14;;;;;;;0.70;0.70;;;14.70;88.30;;;;;;5015744;28;20419;-70